sensor_id;sensor_type;location;lat;lon;timestamp;temperature;humidity
13375;DHT22;6756;51.354;15.754;2023-04-06T00:01:34;-4.50;99.90
13375;DHT22;6756;51.354;15.754;2023-04-06T00:05:35;-4.50;99.90
13375;DHT22;6756;51.354;15.754;2023-04-06T00:09:39;-4.60;1.00
13375;DHT22;6756;51.354;15.754;2023-04-06T00:13:44;-4.70;99.90
13375;DHT22;6756;51.354;15.754;2023-04-06T00:17:48;-4.70;1.00
13375;DHT22;6756;51.354;15.754;2023-04-06T00:21:49;-4.80;1.00
13375;DHT22;6756;51.354;15.754;2023-04-06T00:25:50;-4.70;99.90
13375;DHT22;6756;51.354;15.754;2023-04-06T00:29:51;-4.80;1.00
13375;DHT22;6756;51.354;15.754;2023-04-06T00:33:52;-4.80;99.90
13375;DHT22;6756;51.354;15.754;2023-04-06T00:37:53;-4.80;1.00
13375;DHT22;6756;51.354;15.754;2023-04-06T00:41:54;-4.80;1.00
13375;DHT22;6756;51.354;15.754;2023-04-06T00:45:57;-4.80;51.30
13375;DHT22;6756;51.354;15.754;2023-04-06T00:49:58;-4.80;1.00
13375;DHT22;6756;51.354;15.754;2023-04-06T00:54:02;-4.80;1.00
13375;DHT22;6756;51.354;15.754;2023-04-06T00:58:06;-4.90;1.00
13375;DHT22;6756;51.354;15.754;2023-04-06T01:02:09;-4.90;1.00
13375;DHT22;6756;51.354;15.754;2023-04-06T01:06:10;-5.00;99.90
13375;DHT22;6756;51.354;15.754;2023-04-06T01:10:11;-5.00;99.90
13375;DHT22;6756;51.354;15.754;2023-04-06T01:14:12;-5.10;99.90
13375;DHT22;6756;51.354;15.754;2023-04-06T01:18:13;-5.10;99.90
13375;DHT22;6756;51.354;15.754;2023-04-06T01:22:23;-5.10;99.90
13375;DHT22;6756;51.354;15.754;2023-04-06T01:26:24;-5.20;99.90
13375;DHT22;6756;51.354;15.754;2023-04-06T01:30:27;-5.20;99.90
13375;DHT22;6756;51.354;15.754;2023-04-06T01:34:28;-5.20;99.90
13375;DHT22;6756;51.354;15.754;2023-04-06T01:38:29;-5.20;99.90
13375;DHT22;6756;51.354;15.754;2023-04-06T01:42:30;-5.20;1.00
13375;DHT22;6756;51.354;15.754;2023-04-06T01:46:32;-5.10;7.40
13375;DHT22;6756;51.354;15.754;2023-04-06T01:50:33;-5.10;99.90
13375;DHT22;6756;51.354;15.754;2023-04-06T01:54:34;-5.10;99.90
13375;DHT22;6756;51.354;15.754;2023-04-06T01:58:34;-5.20;99.90
13375;DHT22;6756;51.354;15.754;2023-04-06T02:02:37;-5.30;99.90
13375;DHT22;6756;51.354;15.754;2023-04-06T02:06:38;-5.40;1.00
13375;DHT22;6756;51.354;15.754;2023-04-06T02:10:46;-5.50;1.00
13375;DHT22;6756;51.354;15.754;2023-04-06T02:14:47;-5.50;99.90
13375;DHT22;6756;51.354;15.754;2023-04-06T02:18:48;-5.60;38.20
13375;DHT22;6756;51.354;15.754;2023-04-06T02:22:49;-5.70;1.00
13375;DHT22;6756;51.354;15.754;2023-04-06T02:26:50;-5.70;99.90
13375;DHT22;6756;51.354;15.754;2023-04-06T02:30:54;-5.70;1.00
13375;DHT22;6756;51.354;15.754;2023-04-06T02:34:55;-5.80;1.00
13375;DHT22;6756;51.354;15.754;2023-04-06T02:39:09;-5.80;99.90
13375;DHT22;6756;51.354;15.754;2023-04-06T02:43:12;-5.70;99.90
13375;DHT22;6756;51.354;15.754;2023-04-06T02:47:16;-5.70;99.90
13375;DHT22;6756;51.354;15.754;2023-04-06T02:51:17;-5.70;1.00
13375;DHT22;6756;51.354;15.754;2023-04-06T02:55:18;-5.70;1.00
13375;DHT22;6756;51.354;15.754;2023-04-06T02:59:20;-5.60;1.00
13375;DHT22;6756;51.354;15.754;2023-04-06T03:03:21;-5.60;99.90
13375;DHT22;6756;51.354;15.754;2023-04-06T03:07:22;-5.70;99.90
13375;DHT22;6756;51.354;15.754;2023-04-06T03:11:23;-5.80;1.00
13375;DHT22;6756;51.354;15.754;2023-04-06T03:15:24;-5.80;99.90
13375;DHT22;6756;51.354;15.754;2023-04-06T03:19:25;-5.80;99.90
13375;DHT22;6756;51.354;15.754;2023-04-06T03:23:35;-5.80;6.90
13375;DHT22;6756;51.354;15.754;2023-04-06T03:27:36;-5.80;1.00
13375;DHT22;6756;51.354;15.754;2023-04-06T03:31:37;-5.90;99.90
13375;DHT22;6756;51.354;15.754;2023-04-06T03:35:38;-6.00;99.90
13375;DHT22;6756;51.354;15.754;2023-04-06T03:39:42;-6.00;1.00
13375;DHT22;6756;51.354;15.754;2023-04-06T03:43:43;-6.00;1.00
13375;DHT22;6756;51.354;15.754;2023-04-06T03:47:44;-6.00;98.10
13375;DHT22;6756;51.354;15.754;2023-04-06T03:51:46;-6.00;99.90
13375;DHT22;6756;51.354;15.754;2023-04-06T03:55:49;-6.00;47.60
13375;DHT22;6756;51.354;15.754;2023-04-06T04:00:00;-6.10;1.00
13375;DHT22;6756;51.354;15.754;2023-04-06T04:04:03;-6.10;1.00
13375;DHT22;6756;51.354;15.754;2023-04-06T04:08:08;-6.10;1.00
13375;DHT22;6756;51.354;15.754;2023-04-06T04:12:27;-6.10;1.00
13375;DHT22;6756;51.354;15.754;2023-04-06T04:16:30;-6.20;99.90
13375;DHT22;6756;51.354;15.754;2023-04-06T04:20:31;-6.10;99.90
13375;DHT22;6756;51.354;15.754;2023-04-06T04:24:32;-6.10;1.00
13375;DHT22;6756;51.354;15.754;2023-04-06T04:28:51;-6.20;1.00
13375;DHT22;6756;51.354;15.754;2023-04-06T04:32:53;-6.20;1.00
13375;DHT22;6756;51.354;15.754;2023-04-06T04:36:57;-6.20;1.00
13375;DHT22;6756;51.354;15.754;2023-04-06T04:41:02;-6.10;1.00
13375;DHT22;6756;51.354;15.754;2023-04-06T04:45:27;-6.10;99.90
13375;DHT22;6756;51.354;15.754;2023-04-06T04:49:31;-6.00;1.00
13375;DHT22;6756;51.354;15.754;2023-04-06T04:53:32;-5.90;1.00
13375;DHT22;6756;51.354;15.754;2023-04-06T04:57:33;-5.80;1.00
13375;DHT22;6756;51.354;15.754;2023-04-06T05:01:34;-5.70;1.00
13375;DHT22;6756;51.354;15.754;2023-04-06T05:05:35;-5.60;99.90
13375;DHT22;6756;51.354;15.754;2023-04-06T05:09:36;-5.60;1.00
13375;DHT22;6756;51.354;15.754;2023-04-06T05:13:48;-5.50;1.00
13375;DHT22;6756;51.354;15.754;2023-04-06T05:17:50;-5.30;1.00
13375;DHT22;6756;51.354;15.754;2023-04-06T05:21:51;-5.10;99.90
13375;DHT22;6756;51.354;15.754;2023-04-06T05:26:00;-4.90;1.00
13375;DHT22;6756;51.354;15.754;2023-04-06T05:30:01;-4.60;43.40
13375;DHT22;6756;51.354;15.754;2023-04-06T05:34:02;-4.30;99.90
13375;DHT22;6756;51.354;15.754;2023-04-06T05:38:07;-4.10;99.90
13375;DHT22;6756;51.354;15.754;2023-04-06T05:42:22;-3.80;99.90
13375;DHT22;6756;51.354;15.754;2023-04-06T05:46:23;-3.60;1.00
13375;DHT22;6756;51.354;15.754;2023-04-06T05:50:34;-3.40;1.00
13375;DHT22;6756;51.354;15.754;2023-04-06T05:54:38;-3.30;1.00
13375;DHT22;6756;51.354;15.754;2023-04-06T05:58:39;-3.10;1.00
13375;DHT22;6756;51.354;15.754;2023-04-06T06:02:40;-2.90;1.00
13375;DHT22;6756;51.354;15.754;2023-04-06T06:06:46;-2.70;99.90
13375;DHT22;6756;51.354;15.754;2023-04-06T06:10:54;-2.50;1.00
13375;DHT22;6756;51.354;15.754;2023-04-06T06:14:55;-2.20;1.00
13375;DHT22;6756;51.354;15.754;2023-04-06T06:18:59;-1.90;1.00
13375;DHT22;6756;51.354;15.754;2023-04-06T06:23:03;-1.60;80.90
13375;DHT22;6756;51.354;15.754;2023-04-06T06:27:05;-1.50;99.90
13375;DHT22;6756;51.354;15.754;2023-04-06T06:31:06;-1.30;99.90
13375;DHT22;6756;51.354;15.754;2023-04-06T06:35:08;-1.10;96.20
13375;DHT22;6756;51.354;15.754;2023-04-06T06:39:10;-0.90;99.90
13375;DHT22;6756;51.354;15.754;2023-04-06T06:43:24;-0.70;99.90
13375;DHT22;6756;51.354;15.754;2023-04-06T06:47:25;-0.40;99.90
13375;DHT22;6756;51.354;15.754;2023-04-06T06:51:29;-0.20;99.90
13375;DHT22;6756;51.354;15.754;2023-04-06T06:55:31;0.00;99.90
13375;DHT22;6756;51.354;15.754;2023-04-06T06:59:32;0.30;99.90
13375;DHT22;6756;51.354;15.754;2023-04-06T07:03:33;0.50;99.90
13375;DHT22;6756;51.354;15.754;2023-04-06T07:07:34;0.70;79.70
13375;DHT22;6756;51.354;15.754;2023-04-06T07:11:35;0.90;1.00
13375;DHT22;6756;51.354;15.754;2023-04-06T07:15:36;1.20;1.00
13375;DHT22;6756;51.354;15.754;2023-04-06T07:19:43;1.40;99.90
13375;DHT22;6756;51.354;15.754;2023-04-06T07:23:45;1.70;99.90
13375;DHT22;6756;51.354;15.754;2023-04-06T07:27:48;1.90;99.90
13375;DHT22;6756;51.354;15.754;2023-04-06T07:32:01;2.20;99.90
13375;DHT22;6756;51.354;15.754;2023-04-06T07:36:31;2.50;95.60
13375;DHT22;6756;51.354;15.754;2023-04-06T07:40:35;2.80;36.00
13375;DHT22;6756;51.354;15.754;2023-04-06T07:44:36;3.00;1.00
13375;DHT22;6756;51.354;15.754;2023-04-06T07:48:37;3.40;1.00
13375;DHT22;6756;51.354;15.754;2023-04-06T07:52:38;3.70;1.00
13375;DHT22;6756;51.354;15.754;2023-04-06T07:56:46;3.80;1.00
13375;DHT22;6756;51.354;15.754;2023-04-06T08:00:47;4.10;1.00
13375;DHT22;6756;51.354;15.754;2023-04-06T08:04:50;4.30;1.00
13375;DHT22;6756;51.354;15.754;2023-04-06T08:08:51;4.50;1.00
13375;DHT22;6756;51.354;15.754;2023-04-06T08:13:03;4.70;1.00
13375;DHT22;6756;51.354;15.754;2023-04-06T08:17:04;4.90;1.00
13375;DHT22;6756;51.354;15.754;2023-04-06T08:21:05;5.10;1.00
13375;DHT22;6756;51.354;15.754;2023-04-06T08:25:06;5.30;1.00
13375;DHT22;6756;51.354;15.754;2023-04-06T08:29:07;5.40;1.00
13375;DHT22;6756;51.354;15.754;2023-04-06T08:33:09;5.50;1.00
13375;DHT22;6756;51.354;15.754;2023-04-06T08:37:10;5.70;1.00
13375;DHT22;6756;51.354;15.754;2023-04-06T08:41:13;5.80;1.00
13375;DHT22;6756;51.354;15.754;2023-04-06T08:45:16;5.70;1.00
13375;DHT22;6756;51.354;15.754;2023-04-06T08:49:21;5.80;1.00
13375;DHT22;6756;51.354;15.754;2023-04-06T08:53:25;5.80;1.00
13375;DHT22;6756;51.354;15.754;2023-04-06T08:57:29;5.80;1.00
13375;DHT22;6756;51.354;15.754;2023-04-06T09:01:33;5.80;1.00
13375;DHT22;6756;51.354;15.754;2023-04-06T09:05:38;6.20;1.00
13375;DHT22;6756;51.354;15.754;2023-04-06T09:09:42;6.20;1.00
13375;DHT22;6756;51.354;15.754;2023-04-06T09:13:56;6.00;1.00
13375;DHT22;6756;51.354;15.754;2023-04-06T09:18:04;6.10;1.00
13375;DHT22;6756;51.354;15.754;2023-04-06T09:22:09;6.50;1.00
13375;DHT22;6756;51.354;15.754;2023-04-06T09:26:15;6.90;1.00
13375;DHT22;6756;51.354;15.754;2023-04-06T09:30:22;7.30;1.00
13375;DHT22;6756;51.354;15.754;2023-04-06T09:34:25;7.20;1.00
13375;DHT22;6756;51.354;15.754;2023-04-06T09:38:26;7.40;1.00
13375;DHT22;6756;51.354;15.754;2023-04-06T09:42:35;7.70;1.00
13375;DHT22;6756;51.354;15.754;2023-04-06T09:46:41;7.60;1.00
13375;DHT22;6756;51.354;15.754;2023-04-06T09:50:42;7.30;1.00
13375;DHT22;6756;51.354;15.754;2023-04-06T09:54:45;7.20;1.00
13375;DHT22;6756;51.354;15.754;2023-04-06T09:58:52;6.90;1.00
13375;DHT22;6756;51.354;15.754;2023-04-06T10:03:25;7.10;1.00
13375;DHT22;6756;51.354;15.754;2023-04-06T10:07:31;7.50;1.00
13375;DHT22;6756;51.354;15.754;2023-04-06T10:11:32;8.00;1.00
13375;DHT22;6756;51.354;15.754;2023-04-06T10:15:38;8.30;1.00
13375;DHT22;6756;51.354;15.754;2023-04-06T10:20:20;8.10;1.00
13375;DHT22;6756;51.354;15.754;2023-04-06T10:24:22;8.30;1.00
13375;DHT22;6756;51.354;15.754;2023-04-06T10:28:34;8.50;1.00
13375;DHT22;6756;51.354;15.754;2023-04-06T10:32:44;8.60;1.00
13375;DHT22;6756;51.354;15.754;2023-04-06T10:36:46;8.60;1.00
13375;DHT22;6756;51.354;15.754;2023-04-06T10:40:47;8.80;1.00
13375;DHT22;6756;51.354;15.754;2023-04-06T10:44:49;8.90;1.00
13375;DHT22;6756;51.354;15.754;2023-04-06T10:48:52;9.00;1.00
13375;DHT22;6756;51.354;15.754;2023-04-06T10:53:00;9.00;1.00
13375;DHT22;6756;51.354;15.754;2023-04-06T10:57:02;9.10;1.00
13375;DHT22;6756;51.354;15.754;2023-04-06T11:01:03;9.30;1.00
13375;DHT22;6756;51.354;15.754;2023-04-06T11:05:11;9.20;99.90
13375;DHT22;6756;51.354;15.754;2023-04-06T11:09:26;9.30;99.90
13375;DHT22;6756;51.354;15.754;2023-04-06T11:18:04;9.40;99.90
13375;DHT22;6756;51.354;15.754;2023-04-06T11:22:14;9.50;99.90
13375;DHT22;6756;51.354;15.754;2023-04-06T11:26:17;9.70;99.90
13375;DHT22;6756;51.354;15.754;2023-04-06T11:30:18;9.50;99.90
13375;DHT22;6756;51.354;15.754;2023-04-06T11:34:23;9.70;99.90
13375;DHT22;6756;51.354;15.754;2023-04-06T11:38:25;9.90;99.90
13375;DHT22;6756;51.354;15.754;2023-04-06T11:42:28;9.90;99.90
13375;DHT22;6756;51.354;15.754;2023-04-06T11:46:52;10.00;99.90
13375;DHT22;6756;51.354;15.754;2023-04-06T11:50:59;10.30;99.90
13375;DHT22;6756;51.354;15.754;2023-04-06T11:55:22;10.20;99.90
13375;DHT22;6756;51.354;15.754;2023-04-06T11:59:23;10.00;99.90
13375;DHT22;6756;51.354;15.754;2023-04-06T12:03:24;9.90;99.90
13375;DHT22;6756;51.354;15.754;2023-04-06T12:07:28;10.10;99.90
13375;DHT22;6756;51.354;15.754;2023-04-06T12:11:29;10.40;99.90
13375;DHT22;6756;51.354;15.754;2023-04-06T12:15:30;10.30;99.90
13375;DHT22;6756;51.354;15.754;2023-04-06T12:19:31;10.30;99.90
13375;DHT22;6756;51.354;15.754;2023-04-06T12:23:35;10.20;99.90
13375;DHT22;6756;51.354;15.754;2023-04-06T12:27:39;10.00;99.90
13375;DHT22;6756;51.354;15.754;2023-04-06T12:31:41;9.60;99.90
13375;DHT22;6756;51.354;15.754;2023-04-06T12:35:43;9.80;99.90
13375;DHT22;6756;51.354;15.754;2023-04-06T12:39:45;9.90;99.90
13375;DHT22;6756;51.354;15.754;2023-04-06T12:43:46;10.30;99.90
13375;DHT22;6756;51.354;15.754;2023-04-06T12:47:52;10.60;99.90
13375;DHT22;6756;51.354;15.754;2023-04-06T12:51:53;10.50;99.90
13375;DHT22;6756;51.354;15.754;2023-04-06T12:55:54;10.50;99.90
13375;DHT22;6756;51.354;15.754;2023-04-06T12:59:56;10.50;99.90
13375;DHT22;6756;51.354;15.754;2023-04-06T13:04:00;10.30;99.90
13375;DHT22;6756;51.354;15.754;2023-04-06T13:08:01;10.20;99.90
13375;DHT22;6756;51.354;15.754;2023-04-06T13:12:06;10.20;99.90
13375;DHT22;6756;51.354;15.754;2023-04-06T13:16:08;10.50;99.90
13375;DHT22;6756;51.354;15.754;2023-04-06T13:20:12;10.90;99.90
13375;DHT22;6756;51.354;15.754;2023-04-06T13:24:16;11.00;99.90
13375;DHT22;6756;51.354;15.754;2023-04-06T13:28:39;11.20;99.90
13375;DHT22;6756;51.354;15.754;2023-04-06T13:32:40;11.00;99.90
13375;DHT22;6756;51.354;15.754;2023-04-06T13:36:41;10.70;99.90
13375;DHT22;6756;51.354;15.754;2023-04-06T13:41:06;10.30;99.90
13375;DHT22;6756;51.354;15.754;2023-04-06T13:45:10;9.60;99.90
13375;DHT22;6756;51.354;15.754;2023-04-06T13:49:11;9.50;99.90
13375;DHT22;6756;51.354;15.754;2023-04-06T13:53:15;9.30;99.90
13375;DHT22;6756;51.354;15.754;2023-04-06T13:57:25;9.10;99.90
13375;DHT22;6756;51.354;15.754;2023-04-06T14:01:26;9.20;99.90
13375;DHT22;6756;51.354;15.754;2023-04-06T14:05:32;9.50;99.90
13375;DHT22;6756;51.354;15.754;2023-04-06T14:09:33;9.90;99.90
13375;DHT22;6756;51.354;15.754;2023-04-06T14:13:34;10.30;99.90
13375;DHT22;6756;51.354;15.754;2023-04-06T14:17:35;10.70;99.90
13375;DHT22;6756;51.354;15.754;2023-04-06T14:21:38;10.90;99.90
13375;DHT22;6756;51.354;15.754;2023-04-06T14:25:50;10.70;99.90
13375;DHT22;6756;51.354;15.754;2023-04-06T14:29:52;10.30;99.90
13375;DHT22;6756;51.354;15.754;2023-04-06T14:33:57;10.10;99.90
13375;DHT22;6756;51.354;15.754;2023-04-06T14:37:59;9.90;99.90
13375;DHT22;6756;51.354;15.754;2023-04-06T14:42:02;9.80;99.90
13375;DHT22;6756;51.354;15.754;2023-04-06T14:46:05;9.80;99.90
13375;DHT22;6756;51.354;15.754;2023-04-06T14:50:11;9.80;99.90
13375;DHT22;6756;51.354;15.754;2023-04-06T14:54:12;9.80;99.90
13375;DHT22;6756;51.354;15.754;2023-04-06T14:58:13;9.80;99.90
13375;DHT22;6756;51.354;15.754;2023-04-06T15:02:14;9.70;99.90
13375;DHT22;6756;51.354;15.754;2023-04-06T15:06:17;9.60;99.90
13375;DHT22;6756;51.354;15.754;2023-04-06T15:10:18;9.60;99.90
13375;DHT22;6756;51.354;15.754;2023-04-06T15:14:28;9.40;99.90
13375;DHT22;6756;51.354;15.754;2023-04-06T15:18:33;9.10;99.90
13375;DHT22;6756;51.354;15.754;2023-04-06T15:22:34;9.20;99.90
13375;DHT22;6756;51.354;15.754;2023-04-06T15:26:36;9.30;99.90
13375;DHT22;6756;51.354;15.754;2023-04-06T15:30:41;9.50;99.90
13375;DHT22;6756;51.354;15.754;2023-04-06T15:34:41;9.40;99.90
13375;DHT22;6756;51.354;15.754;2023-04-06T15:38:42;9.20;99.90
13375;DHT22;6756;51.354;15.754;2023-04-06T15:42:43;9.10;99.90
13375;DHT22;6756;51.354;15.754;2023-04-06T15:46:45;9.40;99.90
13375;DHT22;6756;51.354;15.754;2023-04-06T15:50:46;9.50;99.90
13375;DHT22;6756;51.354;15.754;2023-04-06T15:54:50;9.60;99.90
13375;DHT22;6756;51.354;15.754;2023-04-06T15:58:51;9.70;99.90
13375;DHT22;6756;51.354;15.754;2023-04-06T16:02:52;9.80;99.90
13375;DHT22;6756;51.354;15.754;2023-04-06T16:06:53;9.70;99.90
13375;DHT22;6756;51.354;15.754;2023-04-06T16:10:58;9.60;99.90
13375;DHT22;6756;51.354;15.754;2023-04-06T16:14:59;9.50;99.90
13375;DHT22;6756;51.354;15.754;2023-04-06T16:19:00;9.40;99.90
13375;DHT22;6756;51.354;15.754;2023-04-06T16:23:02;9.20;99.90
13375;DHT22;6756;51.354;15.754;2023-04-06T16:27:03;9.10;99.90
13375;DHT22;6756;51.354;15.754;2023-04-06T16:31:04;9.00;99.90
13375;DHT22;6756;51.354;15.754;2023-04-06T16:35:14;8.90;99.90
13375;DHT22;6756;51.354;15.754;2023-04-06T16:39:20;8.80;99.90
13375;DHT22;6756;51.354;15.754;2023-04-06T16:43:21;8.70;99.90
13375;DHT22;6756;51.354;15.754;2023-04-06T16:47:22;8.60;99.90
13375;DHT22;6756;51.354;15.754;2023-04-06T16:51:23;8.50;99.90
13375;DHT22;6756;51.354;15.754;2023-04-06T16:55:32;8.30;99.90
13375;DHT22;6756;51.354;15.754;2023-04-06T16:59:50;8.10;99.90
13375;DHT22;6756;51.354;15.754;2023-04-06T17:03:52;8.00;99.90
13375;DHT22;6756;51.354;15.754;2023-04-06T17:07:53;7.80;99.90
13375;DHT22;6756;51.354;15.754;2023-04-06T17:11:54;7.70;1.00
13375;DHT22;6756;51.354;15.754;2023-04-06T17:16:17;7.60;99.90
13375;DHT22;6756;51.354;15.754;2023-04-06T17:20:52;7.40;99.90
13375;DHT22;6756;51.354;15.754;2023-04-06T17:24:54;7.20;99.90
13375;DHT22;6756;51.354;15.754;2023-04-06T17:28:55;7.00;99.90
13375;DHT22;6756;51.354;15.754;2023-04-06T17:32:59;6.80;99.90
13375;DHT22;6756;51.354;15.754;2023-04-06T17:37:01;6.60;99.90
13375;DHT22;6756;51.354;15.754;2023-04-06T17:41:02;6.40;99.90
13375;DHT22;6756;51.354;15.754;2023-04-06T17:45:13;6.20;1.00
13375;DHT22;6756;51.354;15.754;2023-04-06T17:49:15;5.90;1.00
13375;DHT22;6756;51.354;15.754;2023-04-06T17:53:16;5.40;1.00
13375;DHT22;6756;51.354;15.754;2023-04-06T17:57:20;5.00;1.00
13375;DHT22;6756;51.354;15.754;2023-04-06T18:01:23;4.60;1.00
13375;DHT22;6756;51.354;15.754;2023-04-06T18:05:31;4.20;1.00
13375;DHT22;6756;51.354;15.754;2023-04-06T18:09:32;3.90;1.00
13375;DHT22;6756;51.354;15.754;2023-04-06T18:13:36;3.70;1.00
13375;DHT22;6756;51.354;15.754;2023-04-06T18:17:37;3.40;1.00
13375;DHT22;6756;51.354;15.754;2023-04-06T18:21:38;3.20;1.00
13375;DHT22;6756;51.354;15.754;2023-04-06T18:25:45;3.00;1.00
13375;DHT22;6756;51.354;15.754;2023-04-06T18:29:49;2.80;1.00
13375;DHT22;6756;51.354;15.754;2023-04-06T18:33:51;2.60;1.00
13375;DHT22;6756;51.354;15.754;2023-04-06T18:37:52;2.40;1.00
13375;DHT22;6756;51.354;15.754;2023-04-06T18:41:54;2.30;1.00
13375;DHT22;6756;51.354;15.754;2023-04-06T18:45:58;2.20;1.00
13375;DHT22;6756;51.354;15.754;2023-04-06T18:50:00;2.10;1.00
13375;DHT22;6756;51.354;15.754;2023-04-06T18:54:01;2.00;1.00
13375;DHT22;6756;51.354;15.754;2023-04-06T18:58:02;1.90;1.00
13375;DHT22;6756;51.354;15.754;2023-04-06T19:02:04;1.80;1.00
13375;DHT22;6756;51.354;15.754;2023-04-06T19:06:05;1.60;1.00
13375;DHT22;6756;51.354;15.754;2023-04-06T19:10:08;1.50;1.00
13375;DHT22;6756;51.354;15.754;2023-04-06T19:14:09;1.40;1.00
13375;DHT22;6756;51.354;15.754;2023-04-06T19:18:10;1.30;1.00
13375;DHT22;6756;51.354;15.754;2023-04-06T19:22:15;1.20;1.00
13375;DHT22;6756;51.354;15.754;2023-04-06T19:26:17;1.10;1.00
13375;DHT22;6756;51.354;15.754;2023-04-06T19:30:18;1.00;1.00
13375;DHT22;6756;51.354;15.754;2023-04-06T19:34:20;0.90;1.00
13375;DHT22;6756;51.354;15.754;2023-04-06T19:38:21;0.70;1.00
13375;DHT22;6756;51.354;15.754;2023-04-06T19:42:22;0.60;1.00
13375;DHT22;6756;51.354;15.754;2023-04-06T19:46:24;0.50;1.00
13375;DHT22;6756;51.354;15.754;2023-04-06T19:50:26;0.40;1.00
13375;DHT22;6756;51.354;15.754;2023-04-06T19:54:30;0.30;1.00
13375;DHT22;6756;51.354;15.754;2023-04-06T19:58:31;0.20;1.00
13375;DHT22;6756;51.354;15.754;2023-04-06T20:02:37;0.10;1.00
13375;DHT22;6756;51.354;15.754;2023-04-06T20:06:41;0.10;1.00
13375;DHT22;6756;51.354;15.754;2023-04-06T20:11:02;0.00;1.00
13375;DHT22;6756;51.354;15.754;2023-04-06T20:15:42;-0.10;1.00
13375;DHT22;6756;51.354;15.754;2023-04-06T20:20:04;-0.10;1.00
13375;DHT22;6756;51.354;15.754;2023-04-06T20:24:05;-0.20;1.00
13375;DHT22;6756;51.354;15.754;2023-04-06T20:28:06;-0.30;1.00
13375;DHT22;6756;51.354;15.754;2023-04-06T20:32:09;-0.40;1.00
13375;DHT22;6756;51.354;15.754;2023-04-06T20:36:41;-0.50;3.90
13375;DHT22;6756;51.354;15.754;2023-04-06T20:41:04;-0.50;8.20
13375;DHT22;6756;51.354;15.754;2023-04-06T20:45:16;-0.60;12.50
13375;DHT22;6756;51.354;15.754;2023-04-06T20:49:17;-0.70;20.10
13375;DHT22;6756;51.354;15.754;2023-04-06T20:53:27;-0.80;26.10
13375;DHT22;6756;51.354;15.754;2023-04-06T20:57:31;-0.80;36.60
13375;DHT22;6756;51.354;15.754;2023-04-06T21:01:35;-0.90;45.60
13375;DHT22;6756;51.354;15.754;2023-04-06T21:05:41;-0.90;52.60
13375;DHT22;6756;51.354;15.754;2023-04-06T21:10:00;-0.90;63.20
13375;DHT22;6756;51.354;15.754;2023-04-06T21:14:14;-1.00;66.10
13375;DHT22;6756;51.354;15.754;2023-04-06T21:18:16;-1.00;71.30
13375;DHT22;6756;51.354;15.754;2023-04-06T21:22:17;-1.00;77.90
13375;DHT22;6756;51.354;15.754;2023-04-06T21:26:18;-1.10;78.10
13375;DHT22;6756;51.354;15.754;2023-04-06T21:30:31;-1.10;91.40
13375;DHT22;6756;51.354;15.754;2023-04-06T21:34:42;-1.20;99.20
13375;DHT22;6756;51.354;15.754;2023-04-06T21:39:00;-1.20;99.90
13375;DHT22;6756;51.354;15.754;2023-04-06T21:43:17;-1.30;99.90
13375;DHT22;6756;51.354;15.754;2023-04-06T21:47:39;-1.30;99.90
13375;DHT22;6756;51.354;15.754;2023-04-06T21:51:43;-1.40;99.90
13375;DHT22;6756;51.354;15.754;2023-04-06T21:55:45;-1.40;99.90
13375;DHT22;6756;51.354;15.754;2023-04-06T21:59:50;-1.40;99.90
13375;DHT22;6756;51.354;15.754;2023-04-06T22:08:54;-1.40;99.90
13375;DHT22;6756;51.354;15.754;2023-04-06T22:13:08;-1.40;99.90
13375;DHT22;6756;51.354;15.754;2023-04-06T22:17:20;-1.50;99.90
13375;DHT22;6756;51.354;15.754;2023-04-06T22:21:49;-1.50;99.90
13375;DHT22;6756;51.354;15.754;2023-04-06T22:26:00;-1.50;99.90
13375;DHT22;6756;51.354;15.754;2023-04-06T22:30:19;-1.50;99.90
13375;DHT22;6756;51.354;15.754;2023-04-06T22:34:30;-1.50;99.90
13375;DHT22;6756;51.354;15.754;2023-04-06T22:38:31;-1.40;99.90
13375;DHT22;6756;51.354;15.754;2023-04-06T22:42:43;-1.40;99.90
13375;DHT22;6756;51.354;15.754;2023-04-06T22:47:05;-1.20;99.90
13375;DHT22;6756;51.354;15.754;2023-04-06T22:51:06;-1.10;99.90
13375;DHT22;6756;51.354;15.754;2023-04-06T22:55:07;-1.00;99.90
13375;DHT22;6756;51.354;15.754;2023-04-06T22:59:14;-0.90;99.90
13375;DHT22;6756;51.354;15.754;2023-04-06T23:03:15;-0.80;99.90
13375;DHT22;6756;51.354;15.754;2023-04-06T23:07:16;-0.80;99.90
13375;DHT22;6756;51.354;15.754;2023-04-06T23:11:17;-0.80;99.90
13375;DHT22;6756;51.354;15.754;2023-04-06T23:15:18;-0.80;99.90
13375;DHT22;6756;51.354;15.754;2023-04-06T23:19:21;-0.70;99.90
13375;DHT22;6756;51.354;15.754;2023-04-06T23:23:23;-0.60;99.90
13375;DHT22;6756;51.354;15.754;2023-04-06T23:27:24;-0.60;99.90
13375;DHT22;6756;51.354;15.754;2023-04-06T23:31:25;-0.50;99.90
13375;DHT22;6756;51.354;15.754;2023-04-06T23:35:26;-0.40;99.90
13375;DHT22;6756;51.354;15.754;2023-04-06T23:39:30;-0.30;99.90
13375;DHT22;6756;51.354;15.754;2023-04-06T23:43:31;-0.20;99.90
13375;DHT22;6756;51.354;15.754;2023-04-06T23:47:32;-0.10;99.90
13375;DHT22;6756;51.354;15.754;2023-04-06T23:51:33;-0.10;99.90
13375;DHT22;6756;51.354;15.754;2023-04-06T23:55:34;0.00;99.90
13375;DHT22;6756;51.354;15.754;2023-04-06T23:59:59;0.00;99.90
